createdAt,value
2023-10-13T00:00:27.334Z,32.28
2023-10-13T00:01:30.705Z,33.70
2023-10-13T00:02:35.010Z,33.28
2023-10-13T00:03:38.417Z,32.53
2023-10-13T00:04:41.328Z,32.65
2023-10-13T00:05:44.924Z,35.67
2023-10-13T00:06:47.375Z,35.50
2023-10-13T00:07:50.998Z,34.42
2023-10-13T00:08:53.388Z,31.13
2023-10-13T00:09:57.934Z,33.75
2023-10-13T00:11:04.267Z,31.00
2023-10-13T00:12:15.177Z,30.52
2023-10-13T00:13:20.405Z,31.30
2023-10-13T00:14:23.492Z,36.08
2023-10-13T00:15:29.392Z,31.73
2023-10-13T00:16:32.585Z,36.83
2023-10-13T00:17:40.021Z,33.80
2023-10-13T00:18:45.540Z,33.72
2023-10-13T00:19:48.434Z,33.80
2023-10-13T00:20:51.659Z,34.15
2023-10-13T00:21:57.183Z,32.35
2023-10-13T00:22:59.539Z,33.55
2023-10-13T00:24:07.920Z,34.78
2023-10-13T00:25:20.730Z,34.42
2023-10-13T00:26:31.472Z,36.22
2023-10-13T00:27:37.896Z,38.60
2023-10-13T00:28:49.177Z,36.13
2023-10-13T00:29:52.812Z,36.47
2023-10-13T00:31:12.363Z,38.20
2023-10-13T00:32:17.604Z,37.22
2023-10-13T00:33:22.851Z,34.75
2023-10-13T00:34:29.082Z,36.03
2023-10-13T00:35:37.750Z,33.10
2023-10-13T00:37:10.924Z,36.42
2023-10-13T00:38:18.306Z,33.92
2023-10-13T00:39:24.031Z,33.83
2023-10-13T00:40:47.704Z,34.08
2023-10-13T00:42:08.632Z,35.03
2023-10-13T00:43:21.012Z,36.47
2023-10-13T00:44:29.869Z,33.88
2023-10-13T00:45:35.475Z,33.10
2023-10-13T00:46:40.452Z,30.88
2023-10-13T00:47:50.661Z,33.00
2023-10-13T00:48:53.821Z,32.33
2023-10-13T00:49:57.646Z,35.55
2023-10-13T00:51:04.376Z,29.67
2023-10-13T00:52:08.187Z,33.20
2023-10-13T00:53:11.240Z,34.50
2023-10-13T00:54:13.662Z,36.97
2023-10-13T00:55:18.667Z,33.33
2023-10-13T00:56:26.401Z,31.30
2023-10-13T00:57:29.818Z,30.88
2023-10-13T00:58:32.510Z,29.35
2023-10-13T00:59:38.247Z,30.02
2023-10-13T01:00:49.990Z,28.77
2023-10-13T01:01:57.260Z,32.77
2023-10-13T01:03:07.469Z,32.47
2023-10-13T01:04:14.345Z,31.85
2023-10-13T01:05:21.414Z,31.42
2023-10-13T01:06:27.568Z,31.88
2023-10-13T01:07:30.075Z,29.45
2023-10-13T01:08:39.361Z,30.58
2023-10-13T01:09:44.864Z,29.77
2023-10-13T01:10:47.145Z,33.95
2023-10-13T01:11:54.067Z,28.42
2023-10-13T01:12:56.774Z,25.83
2023-10-13T01:14:04.209Z,26.73
2023-10-13T01:15:12.424Z,26.60
2023-10-13T01:16:15.906Z,30.45
2023-10-13T01:17:19.667Z,30.00
2023-10-13T01:18:22.683Z,29.10
2023-10-13T01:19:29.322Z,31.15
2023-10-13T01:20:31.723Z,28.88
2023-10-13T01:21:35.066Z,30.20
2023-10-13T01:22:37.636Z,28.08
2023-10-13T01:23:39.924Z,31.43
2023-10-13T01:24:42.293Z,28.92
2023-10-13T01:25:44.719Z,27.08
2023-10-13T01:26:52.670Z,29.75
2023-10-13T01:27:55.600Z,29.20
2023-10-13T01:29:01.048Z,27.45
2023-10-13T01:30:24.265Z,27.80
2023-10-13T01:31:30.364Z,29.33
2023-10-13T01:32:33.186Z,28.27
2023-10-13T01:33:36.380Z,28.10
2023-10-13T01:34:40.042Z,26.53
2023-10-13T01:35:48.830Z,28.73
2023-10-13T01:36:55.563Z,26.80
2023-10-13T01:37:57.960Z,26.05
2023-10-13T01:39:02.839Z,26.20
2023-10-13T01:40:05.911Z,25.30
2023-10-13T01:41:10.339Z,26.50
2023-10-13T01:42:15.720Z,27.80
2023-10-13T01:43:19.269Z,28.60
2023-10-13T01:44:21.682Z,26.35
2023-10-13T01:45:30.553Z,26.30
2023-10-13T01:46:34.129Z,26.05
2023-10-13T01:47:37.514Z,29.98
2023-10-13T01:48:41.665Z,28.20
2023-10-13T01:49:48.621Z,26.80
2023-10-13T01:51:01.828Z,27.45
2023-10-13T01:52:05.072Z,28.05
2023-10-13T01:53:13.360Z,33.35
2023-10-13T01:54:17.020Z,31.40
2023-10-13T01:55:21.398Z,26.05
2023-10-13T01:56:31.712Z,26.70
2023-10-13T01:57:34.168Z,25.88
2023-10-13T01:58:37.660Z,27.17
2023-10-13T01:59:58.275Z,27.27
2023-10-13T02:01:01.265Z,29.50
2023-10-13T02:02:05.004Z,28.52
2023-10-13T02:03:16.545Z,26.13
2023-10-13T02:04:22.824Z,28.05
2023-10-13T02:05:34.406Z,27.85
2023-10-13T02:06:37.776Z,33.03
2023-10-13T02:07:40.393Z,31.23
2023-10-13T02:08:44.854Z,30.33
2023-10-13T02:09:47.374Z,27.55
2023-10-13T02:10:50.464Z,30.77
2023-10-13T02:11:56.632Z,31.70
2023-10-13T02:12:59.058Z,27.95
2023-10-13T02:14:01.733Z,28.35
2023-10-13T02:15:06.646Z,25.50
2023-10-13T02:16:10.413Z,27.40
2023-10-13T02:17:17.789Z,28.23
2023-10-13T02:18:42.680Z,27.20
2023-10-13T02:19:46.731Z,26.90
2023-10-13T02:20:55.759Z,26.38
2023-10-13T02:22:00.689Z,30.65
2023-10-13T02:23:02.989Z,30.80
2023-10-13T02:24:05.846Z,30.15
2023-10-13T02:25:23.511Z,26.90
2023-10-13T02:26:32.113Z,29.30
2023-10-13T02:27:44.681Z,25.83
2023-10-13T02:28:53.939Z,24.67
2023-10-13T02:30:16.864Z,27.97
2023-10-13T02:31:28.491Z,27.45
2023-10-13T02:32:34.875Z,27.50
2023-10-13T02:33:46.140Z,26.77
2023-10-13T02:34:49.373Z,29.17
2023-10-13T02:35:54.676Z,30.67
2023-10-13T02:36:57.198Z,29.63
2023-10-13T02:38:00.373Z,27.83
2023-10-13T02:39:08.944Z,30.98
2023-10-13T02:40:13.146Z,26.48
2023-10-13T02:41:26.785Z,26.73
2023-10-13T02:42:29.536Z,25.25
2023-10-13T02:43:34.959Z,29.08
2023-10-13T02:44:38.387Z,29.30
2023-10-13T02:45:41.403Z,24.73
2023-10-13T02:46:44.759Z,26.70
2023-10-13T02:47:47.285Z,26.42
2023-10-13T02:48:58.865Z,26.75
2023-10-13T02:50:02.413Z,25.80
2023-10-13T02:51:08.453Z,27.75
2023-10-13T02:52:14.373Z,27.00
2023-10-13T02:53:19.918Z,28.20
2023-10-13T02:54:22.377Z,27.08
2023-10-13T02:55:27.544Z,25.05
2023-10-13T02:56:30.649Z,28.17
2023-10-13T02:57:35.931Z,27.92
2023-10-13T02:58:41.449Z,26.60
2023-10-13T03:00:13.653Z,28.27
2023-10-13T03:01:19.000Z,26.45
2023-10-13T03:02:27.459Z,29.30
2023-10-13T03:03:31.545Z,31.20
2023-10-13T03:04:34.417Z,29.23
2023-10-13T03:05:40.334Z,28.38
2023-10-13T03:06:43.035Z,26.20
2023-10-13T03:07:45.899Z,27.80
2023-10-13T03:08:48.468Z,29.45
2023-10-13T03:09:52.591Z,31.48
2023-10-13T03:10:56.269Z,28.73
2023-10-13T03:11:58.687Z,28.20
2023-10-13T03:13:03.459Z,24.13
2023-10-13T03:14:07.971Z,26.20
2023-10-13T03:15:15.386Z,24.25
2023-10-13T03:16:19.061Z,26.52
2023-10-13T03:17:30.097Z,25.05
2023-10-13T03:18:35.753Z,23.92
2023-10-13T03:19:41.261Z,23.73
2023-10-13T03:20:43.741Z,19.92
2023-10-13T03:21:56.368Z,22.92
2023-10-13T03:23:00.010Z,21.77
2023-10-13T03:24:07.902Z,22.58
2023-10-13T03:25:14.838Z,23.93
2023-10-13T03:26:18.826Z,22.02
2023-10-13T03:27:25.295Z,21.20
2023-10-13T03:28:35.424Z,21.65
2023-10-13T03:29:44.241Z,21.95
2023-10-13T03:30:48.097Z,23.85
2023-10-13T03:32:10.513Z,22.33
2023-10-13T03:33:27.002Z,20.58
2023-10-13T03:34:31.089Z,20.77
2023-10-13T03:35:45.098Z,24.77
2023-10-13T03:37:16.747Z,24.07
2023-10-13T03:38:19.630Z,21.55
2023-10-13T03:39:28.640Z,23.88
2023-10-13T03:40:31.167Z,23.00
2023-10-13T03:41:34.078Z,22.77
2023-10-13T03:42:41.342Z,23.85
2023-10-13T03:43:47.250Z,22.92
2023-10-13T03:44:50.051Z,20.67
2023-10-13T03:46:02.521Z,23.40
2023-10-13T03:47:10.479Z,26.20
2023-10-13T03:48:25.967Z,26.07
2023-10-13T03:49:30.674Z,24.98
2023-10-13T03:50:33.983Z,24.48
2023-10-13T03:51:40.408Z,23.60
2023-10-13T03:52:43.466Z,27.05
2023-10-13T03:55:07.354Z,27.38
2023-10-13T03:56:17.201Z,27.48
2023-10-13T03:57:19.938Z,25.85
2023-10-13T03:58:25.815Z,32.25
2023-10-13T03:59:36.672Z,27.57
2023-10-13T04:00:39.636Z,26.67
2023-10-13T04:01:45.336Z,27.50
2023-10-13T04:02:54.253Z,28.80
2023-10-13T04:04:12.762Z,26.25
2023-10-13T04:05:48.597Z,25.20
2023-10-13T04:07:29.513Z,24.58
2023-10-13T04:08:51.421Z,23.92
2023-10-13T04:12:13.402Z,24.75
2023-10-13T04:13:21.824Z,23.73
2023-10-13T04:14:46.952Z,21.02
2023-10-13T04:16:24.624Z,21.23
2023-10-13T04:17:28.355Z,20.10
2023-10-13T04:18:51.215Z,23.60
2023-10-13T04:20:07.663Z,20.90
2023-10-13T04:21:20.420Z,19.27
2023-10-13T04:22:24.414Z,21.98
2023-10-13T04:23:27.993Z,24.35
2023-10-13T04:24:59.478Z,20.35
2023-10-13T04:26:09.608Z,23.17
2023-10-13T04:27:40.567Z,22.35
2023-10-13T04:28:52.463Z,19.02
2023-10-13T04:30:03.804Z,20.63
2023-10-13T04:31:26.050Z,20.65
2023-10-13T04:32:34.293Z,20.40
2023-10-13T04:33:36.973Z,20.10
2023-10-13T04:34:41.121Z,19.95
2023-10-13T04:35:49.440Z,20.27
2023-10-13T04:36:58.479Z,22.98
2023-10-13T04:38:12.261Z,18.53
2023-10-13T04:39:30.693Z,20.60
2023-10-13T04:40:36.949Z,19.42
2023-10-13T04:41:59.234Z,21.95
2023-10-13T04:43:06.022Z,21.48
2023-10-13T04:44:27.156Z,32.20
2023-10-13T04:45:32.261Z,21.65
2023-10-13T04:46:41.552Z,22.25
2023-10-13T04:47:58.610Z,22.27
2023-10-13T04:49:08.918Z,26.33
2023-10-13T04:50:24.163Z,23.60
2023-10-13T04:51:45.133Z,21.52
2023-10-13T04:53:02.870Z,24.45
2023-10-13T04:54:12.489Z,23.15
2023-10-13T04:55:38.193Z,24.13
2023-10-13T04:56:43.537Z,25.65
2023-10-13T04:57:51.168Z,21.52
2023-10-13T04:59:12.281Z,27.23
2023-10-13T05:00:18.274Z,23.40
2023-10-13T05:01:26.460Z,24.33
2023-10-13T05:02:37.993Z,26.40
2023-10-13T05:03:55.731Z,22.20
2023-10-13T05:05:06.854Z,26.10
2023-10-13T05:06:31.901Z,26.33
2023-10-13T05:07:53.268Z,25.13
2023-10-13T05:09:13.926Z,26.33
2023-10-13T05:10:34.633Z,24.77
2023-10-13T05:11:55.732Z,26.77
2023-10-13T05:13:16.507Z,33.30
2023-10-13T05:14:37.620Z,31.95
2023-10-13T05:16:08.165Z,29.43
2023-10-13T05:17:29.288Z,30.77
2023-10-13T05:18:50.550Z,28.92
2023-10-13T05:20:15.450Z,22.02
2023-10-13T05:21:37.219Z,24.30
2023-10-13T05:22:58.540Z,23.48
2023-10-13T05:24:19.444Z,24.50
2023-10-13T05:25:40.211Z,21.50
2023-10-13T05:27:00.970Z,25.00
2023-10-13T05:28:34.213Z,24.13
2023-10-13T05:30:04.092Z,22.57
2023-10-13T05:31:25.182Z,23.35
2023-10-13T05:32:46.624Z,25.05
2023-10-13T05:34:07.426Z,25.33
2023-10-13T05:35:28.447Z,24.50
2023-10-13T05:36:49.494Z,24.95
2023-10-13T05:38:10.544Z,25.52
2023-10-13T05:39:31.214Z,23.27
2023-10-13T05:40:52.848Z,21.23
2023-10-13T05:42:13.632Z,21.75
2023-10-13T05:43:34.708Z,20.37
2023-10-13T05:44:48.724Z,27.67
2023-10-13T05:46:09.640Z,23.30
2023-10-13T05:47:30.562Z,24.80
2023-10-13T05:48:51.319Z,24.00
2023-10-13T05:50:12.667Z,21.65
2023-10-13T05:51:33.406Z,22.40
2023-10-13T05:52:54.344Z,24.17
2023-10-13T05:54:14.791Z,24.05
2023-10-13T05:55:35.780Z,22.77
2023-10-13T05:56:56.938Z,24.10
2023-10-13T05:58:18.286Z,25.00
2023-10-13T05:59:39.230Z,22.55
2023-10-13T06:01:01.490Z,24.65
2023-10-13T06:02:22.258Z,27.58
2023-10-13T06:03:44.132Z,25.80
2023-10-13T06:05:05.295Z,24.58
2023-10-13T06:06:27.486Z,24.33
2023-10-13T06:07:48.651Z,26.10
2023-10-13T06:09:09.422Z,24.73
2023-10-13T06:10:30.378Z,23.40
2023-10-13T06:11:51.423Z,24.98
2023-10-13T06:13:12.137Z,25.25
2023-10-13T06:14:33.062Z,26.15
2023-10-13T06:15:56.631Z,28.67
2023-10-13T06:17:17.582Z,24.08
2023-10-13T06:18:38.455Z,28.23
2023-10-13T06:20:00.799Z,29.95
2023-10-13T06:21:21.629Z,32.30
2023-10-13T06:22:42.639Z,31.40
2023-10-13T06:24:03.384Z,29.10
2023-10-13T06:25:24.831Z,30.98
2023-10-13T06:26:46.017Z,28.38
2023-10-13T06:28:06.867Z,27.52
2023-10-13T06:29:09.301Z,30.08
2023-10-13T06:30:12.133Z,33.25
2023-10-13T06:31:24.092Z,29.73
2023-10-13T06:32:30.374Z,26.33
2023-10-13T06:33:35.197Z,30.80
2023-10-13T06:34:46.985Z,30.27
2023-10-13T06:35:52.681Z,27.63
2023-10-13T06:36:55.872Z,25.83
2023-10-13T06:38:02.220Z,27.02
2023-10-13T06:39:23.223Z,24.58
2023-10-13T06:40:35.034Z,27.65
2023-10-13T06:41:42.039Z,25.35
2023-10-13T06:42:44.974Z,24.60
2023-10-13T06:43:47.368Z,33.85
2023-10-13T06:44:50.005Z,28.95
2023-10-13T06:45:58.686Z,25.80
2023-10-13T06:47:05.680Z,25.87
2023-10-13T06:48:12.218Z,25.35
2023-10-13T06:49:15.719Z,28.77
2023-10-13T06:50:18.434Z,30.90
2023-10-13T06:51:24.308Z,31.55
2023-10-13T06:52:31.097Z,31.90
2023-10-13T06:53:42.010Z,33.33
2023-10-13T06:54:44.840Z,32.83
2023-10-13T06:55:49.056Z,32.42
2023-10-13T06:56:55.050Z,34.10
2023-10-13T06:58:01.675Z,32.57
2023-10-13T06:59:06.244Z,30.98
2023-10-13T07:00:10.978Z,35.17
2023-10-13T07:01:16.630Z,35.47
2023-10-13T07:04:45.675Z,33.45
2023-10-13T07:05:52.307Z,31.92
2023-10-13T07:06:56.245Z,37.58
2023-10-13T07:08:01.160Z,32.03
2023-10-13T07:09:06.319Z,35.83
2023-10-13T07:10:13.351Z,33.33
2023-10-13T07:11:20.083Z,35.08
2023-10-13T07:12:27.777Z,33.97
2023-10-13T07:13:31.042Z,33.42
2023-10-13T07:14:41.774Z,32.60
2023-10-13T07:16:14.276Z,28.08
2023-10-13T07:17:25.077Z,27.40
2023-10-13T07:18:27.908Z,24.15
2023-10-13T07:19:31.393Z,24.73
2023-10-13T07:20:35.971Z,24.73
2023-10-13T07:21:46.745Z,24.87
2023-10-13T07:23:13.204Z,25.92
2023-10-13T07:24:17.378Z,24.48
2023-10-13T07:25:25.449Z,27.10
2023-10-13T07:26:28.296Z,25.95
2023-10-13T07:27:30.712Z,24.77
2023-10-13T07:28:48.099Z,24.75
2023-10-13T07:30:26.675Z,30.83
2023-10-13T07:31:35.226Z,27.90
2023-10-13T07:32:37.658Z,25.27
2023-10-13T07:33:42.550Z,27.77
2023-10-13T07:34:44.979Z,23.45
2023-10-13T07:35:51.958Z,25.75
2023-10-13T07:37:02.120Z,26.50
2023-10-13T07:38:12.502Z,25.33
2023-10-13T07:39:25.312Z,29.17
2023-10-13T07:40:27.705Z,26.58
2023-10-13T07:41:33.431Z,25.00
2023-10-13T07:42:40.893Z,30.48
2023-10-13T07:43:44.746Z,23.48
2023-10-13T07:44:47.944Z,25.67
2023-10-13T07:46:00.096Z,22.55
2023-10-13T07:47:05.249Z,23.20
2023-10-13T07:48:14.566Z,24.35
2023-10-13T07:49:16.915Z,24.80
2023-10-13T07:50:28.533Z,28.05
2023-10-13T07:51:34.496Z,26.98
2023-10-13T07:52:42.347Z,25.20
2023-10-13T07:53:45.179Z,23.10
2023-10-13T07:54:50.910Z,24.83
2023-10-13T07:55:57.138Z,23.53
2023-10-13T07:56:59.806Z,22.67
2023-10-13T07:58:09.176Z,24.17
2023-10-13T07:59:11.659Z,24.50
2023-10-13T08:00:28.158Z,30.52
2023-10-13T08:01:30.604Z,24.58
2023-10-13T08:02:51.368Z,25.25
2023-10-13T08:04:06.989Z,23.65
2023-10-13T08:05:16.210Z,30.35
2023-10-13T08:06:21.449Z,27.55
2023-10-13T08:07:29.631Z,25.63
2023-10-13T08:08:39.459Z,23.17
2023-10-13T08:09:42.364Z,23.25
2023-10-13T08:10:47.066Z,24.15
2023-10-13T08:11:49.501Z,28.42
2023-10-13T08:12:53.506Z,25.23
2023-10-13T08:14:08.057Z,28.48
2023-10-13T08:15:33.832Z,27.45
2023-10-13T08:18:31.887Z,25.02
2023-10-13T08:19:46.859Z,25.23
2023-10-13T08:20:53.075Z,22.90
2023-10-13T08:22:01.417Z,22.33
2023-10-13T08:23:16.016Z,25.65
2023-10-13T08:24:26.330Z,22.50
2023-10-13T08:25:56.395Z,22.08
2023-10-13T08:27:19.270Z,22.60
2023-10-13T08:28:56.817Z,24.63
2023-10-13T08:30:00.214Z,23.23
2023-10-13T08:31:16.100Z,23.05
2023-10-13T08:32:30.548Z,20.97
2023-10-13T08:33:33.889Z,23.85
2023-10-13T08:34:45.646Z,23.85
2023-10-13T08:36:07.303Z,24.42
2023-10-13T08:37:29.599Z,27.00
2023-10-13T08:38:45.012Z,24.30
2023-10-13T08:40:09.545Z,24.90
2023-10-13T08:41:25.558Z,23.63
2023-10-13T08:42:43.096Z,24.65
2023-10-13T08:43:53.225Z,25.55
2023-10-13T08:44:56.317Z,25.87
2023-10-13T08:46:00.380Z,26.20
2023-10-13T08:47:05.797Z,27.08
2023-10-13T08:48:13.688Z,24.73
2023-10-13T08:49:19.367Z,19.92
2023-10-13T08:50:49.112Z,26.15
2023-10-13T08:52:07.038Z,23.27
2023-10-13T08:53:27.889Z,23.88
2023-10-13T08:54:36.667Z,21.65
2023-10-13T08:55:59.299Z,25.45
2023-10-13T08:57:21.678Z,25.13
2023-10-13T08:58:30.754Z,25.98
2023-10-13T08:59:40.397Z,26.85
2023-10-13T09:00:57.978Z,24.77
2023-10-13T09:02:17.185Z,23.98
2023-10-13T09:03:41.594Z,36.75
2023-10-13T09:04:48.725Z,30.52
2023-10-13T09:06:03.438Z,29.75
2023-10-13T09:07:07.081Z,27.80
2023-10-13T09:08:10.935Z,31.20
2023-10-13T09:09:28.130Z,26.23
2023-10-13T09:10:46.043Z,24.70
2023-10-13T09:11:54.856Z,21.45
2023-10-13T09:13:03.026Z,22.55
2023-10-13T09:14:05.427Z,21.10
2023-10-13T09:15:12.961Z,22.23
2023-10-13T09:16:39.335Z,21.58
2023-10-13T09:17:53.670Z,20.92
2023-10-13T09:19:06.639Z,18.67
2023-10-13T09:20:25.538Z,23.02
2023-10-13T09:22:00.393Z,20.33
2023-10-13T09:23:10.834Z,23.70
2023-10-13T09:24:23.897Z,21.58
2023-10-13T09:25:34.639Z,22.45
2023-10-13T09:26:37.515Z,20.10
2023-10-13T09:27:39.923Z,20.35
2023-10-13T09:30:32.781Z,22.38
2023-10-13T09:31:35.252Z,25.92
2023-10-13T09:32:47.457Z,21.98
2023-10-13T09:33:51.864Z,23.77
2023-10-13T09:34:55.383Z,21.73
2023-10-13T09:36:01.233Z,21.65
2023-10-13T09:37:08.230Z,21.15
2023-10-13T09:38:13.500Z,28.65
2023-10-13T09:39:32.541Z,19.25
2023-10-13T09:40:39.737Z,21.83
2023-10-13T09:41:42.356Z,21.02
2023-10-13T09:42:44.842Z,23.95
2023-10-13T09:43:47.695Z,28.30
2023-10-13T09:44:57.185Z,21.47
2023-10-13T09:46:18.707Z,18.00
2023-10-13T09:47:33.885Z,22.25
2023-10-13T09:48:42.816Z,22.55
2023-10-13T09:49:47.116Z,20.88
2023-10-13T09:50:53.140Z,24.80
2023-10-13T09:52:01.951Z,20.50
2023-10-13T09:53:11.764Z,18.40
2023-10-13T09:54:35.821Z,20.30
2023-10-13T09:55:51.744Z,20.27
2023-10-13T09:57:11.701Z,18.43
2023-10-13T09:58:18.971Z,19.70
2023-10-13T09:59:36.356Z,20.95
2023-10-13T10:00:49.911Z,19.55
2023-10-13T10:02:10.166Z,20.40
2023-10-13T10:03:16.822Z,17.85
2023-10-13T10:04:21.425Z,19.63
2023-10-13T10:05:27.540Z,19.33
2023-10-13T10:06:30.084Z,18.50
2023-10-13T10:07:36.692Z,20.13
2023-10-13T10:08:49.779Z,19.47
2023-10-13T10:09:58.419Z,17.92
2023-10-13T10:11:18.517Z,17.73
2023-10-13T10:12:51.688Z,16.30
2023-10-13T10:14:19.146Z,15.20
2023-10-13T10:15:35.783Z,14.13
2023-10-13T10:17:37.493Z,16.42
2023-10-13T10:18:40.902Z,16.83
2023-10-13T10:20:07.588Z,15.52
2023-10-13T10:21:11.603Z,15.80
2023-10-13T10:23:02.489Z,17.37
2023-10-13T10:24:31.644Z,18.63
2023-10-13T10:25:39.469Z,20.77
2023-10-13T10:26:55.235Z,22.75
2023-10-13T10:28:01.649Z,106.30
2023-10-13T10:29:15.516Z,20.70
2023-10-13T10:30:28.868Z,17.70
2023-10-13T10:31:36.680Z,19.75
2023-10-13T10:32:43.084Z,15.45
2023-10-13T10:33:46.681Z,15.70
2023-10-13T10:34:49.634Z,18.00
2023-10-13T10:36:01.740Z,20.42
2023-10-13T10:37:10.477Z,17.08
2023-10-13T10:38:30.394Z,17.13
2023-10-13T10:39:46.625Z,15.70
2023-10-13T10:41:00.382Z,15.38
2023-10-13T10:42:23.664Z,18.75
2023-10-13T10:43:33.905Z,17.33
2023-10-13T10:44:44.530Z,16.80
2023-10-13T10:45:52.842Z,17.73
2023-10-13T10:46:59.175Z,15.37
2023-10-13T10:48:18.151Z,16.27
2023-10-13T10:49:39.347Z,15.40
2023-10-13T10:50:42.734Z,19.95
2023-10-13T10:51:47.136Z,14.98
2023-10-13T10:52:49.878Z,17.98
2023-10-13T10:53:54.778Z,15.38
2023-10-13T10:55:01.289Z,16.45
2023-10-13T10:56:21.191Z,17.20
2023-10-13T10:57:32.368Z,15.30
2023-10-13T10:58:45.488Z,17.03
2023-10-13T10:59:54.895Z,14.50
2023-10-13T11:01:12.439Z,15.45
2023-10-13T11:02:17.016Z,17.17
2023-10-13T11:03:21.970Z,15.93
2023-10-13T11:04:24.618Z,14.45
2023-10-13T11:05:34.243Z,14.43
2023-10-13T11:06:44.113Z,13.18
2023-10-13T11:07:52.606Z,14.63
2023-10-13T11:09:20.225Z,19.48
2023-10-13T11:10:29.379Z,16.50
2023-10-13T11:11:37.088Z,14.98
2023-10-13T11:12:41.376Z,17.20
2023-10-13T11:13:52.748Z,18.98
2023-10-13T11:15:15.759Z,16.88
2023-10-13T11:16:35.833Z,15.63
2023-10-13T11:17:46.472Z,14.45
2023-10-13T11:18:49.618Z,15.18
2023-10-13T11:19:54.535Z,16.88
2023-10-13T11:21:17.011Z,17.25
2023-10-13T11:22:33.860Z,16.00
2023-10-13T11:23:38.252Z,13.48
2023-10-13T11:24:46.548Z,14.48
2023-10-13T11:26:00.671Z,15.05
2023-10-13T11:27:04.321Z,16.08
2023-10-13T11:28:29.013Z,16.98
2023-10-13T11:29:38.923Z,15.90
2023-10-13T11:30:44.224Z,17.23
2023-10-13T11:32:00.338Z,16.45
2023-10-13T11:33:07.920Z,16.35
2023-10-13T11:34:17.054Z,17.90
2023-10-13T11:35:24.730Z,16.70
2023-10-13T11:36:33.567Z,12.82
2023-10-13T11:37:45.048Z,14.55
2023-10-13T11:38:50.362Z,14.88
2023-10-13T11:39:53.324Z,14.77
2023-10-13T11:41:07.100Z,15.82
2023-10-13T11:42:12.701Z,13.95
2023-10-13T11:43:16.696Z,13.40
2023-10-13T11:44:19.607Z,17.08
2023-10-13T11:45:31.396Z,13.70
2023-10-13T11:46:36.742Z,13.52
2023-10-13T11:48:01.299Z,13.02
2023-10-13T11:49:27.871Z,15.48
2023-10-13T11:50:37.295Z,16.25
2023-10-13T11:51:39.705Z,16.15
2023-10-13T11:52:45.700Z,16.15
2023-10-13T11:53:53.396Z,17.42
2023-10-13T11:54:55.834Z,14.98
2023-10-13T11:55:58.536Z,12.63
2023-10-13T11:57:00.977Z,14.10
2023-10-13T11:58:07.550Z,13.52
2023-10-13T11:59:17.892Z,12.52
2023-10-13T12:00:46.097Z,12.18
2023-10-13T12:02:11.521Z,17.30
2023-10-13T12:03:32.831Z,13.45
2023-10-13T12:04:42.321Z,14.02
2023-10-13T12:06:01.142Z,15.27
2023-10-13T12:07:24.724Z,14.23
2023-10-13T12:08:34.456Z,13.50
2023-10-13T12:09:59.237Z,12.67
2023-10-13T12:11:21.591Z,17.08
2023-10-13T12:12:28.460Z,12.68
2023-10-13T12:13:31.981Z,14.82
2023-10-13T12:14:53.951Z,12.20
2023-10-13T12:15:58.309Z,11.63
2023-10-13T12:17:05.837Z,14.73
2023-10-13T12:18:08.768Z,16.45
2023-10-13T12:19:12.536Z,13.73
2023-10-13T12:20:34.147Z,14.98
2023-10-13T12:21:39.132Z,13.93
2023-10-13T12:22:44.185Z,10.65
2023-10-13T12:23:46.936Z,12.68
2023-10-13T12:24:54.780Z,15.00
2023-10-13T12:26:00.924Z,10.82
2023-10-13T12:27:21.842Z,12.50
2023-10-13T12:28:27.277Z,13.95
2023-10-13T12:29:30.318Z,12.60
2023-10-13T12:30:50.630Z,15.57
2023-10-13T12:32:07.110Z,13.02
2023-10-13T12:33:12.472Z,12.47
2023-10-13T12:34:21.256Z,12.10
2023-10-13T12:35:36.753Z,12.88
2023-10-13T12:36:54.899Z,11.63
2023-10-13T12:38:06.665Z,13.98
2023-10-13T12:39:09.286Z,15.27
2023-10-13T12:40:34.040Z,12.75
2023-10-13T12:41:55.518Z,13.65
2023-10-13T12:43:16.439Z,13.15
2023-10-13T12:44:37.665Z,13.00
2023-10-13T12:46:02.484Z,13.13
2023-10-13T12:47:28.509Z,12.80
2023-10-13T12:48:50.586Z,16.50
2023-10-13T12:50:09.903Z,11.38
2023-10-13T12:51:30.435Z,12.15
2023-10-13T12:52:35.789Z,13.13
2023-10-13T12:53:38.459Z,11.13
2023-10-13T12:54:41.332Z,12.50
2023-10-13T12:55:43.781Z,15.82
2023-10-13T12:56:46.245Z,13.23
2023-10-13T12:57:49.514Z,13.63
2023-10-13T12:58:57.002Z,12.82
2023-10-13T12:59:59.973Z,14.88
2023-10-13T13:01:07.898Z,16.80
2023-10-13T13:02:16.999Z,13.40
2023-10-13T13:03:20.415Z,12.18
2023-10-13T13:04:23.295Z,13.00
2023-10-13T13:05:30.526Z,13.82
2023-10-13T13:06:33.184Z,14.07
2023-10-13T13:07:48.692Z,16.50
2023-10-13T13:08:55.310Z,12.67
2023-10-13T13:10:00.253Z,12.57
2023-10-13T13:11:03.040Z,14.65
2023-10-13T13:12:07.618Z,15.05
2023-10-13T13:13:10.683Z,14.73
2023-10-13T13:14:13.026Z,13.57
2023-10-13T13:15:16.433Z,13.85
2023-10-13T13:16:21.268Z,13.35
2023-10-13T13:17:24.061Z,15.93
2023-10-13T13:18:26.940Z,14.40
2023-10-13T13:19:29.420Z,14.03
2023-10-13T13:20:32.215Z,14.95
2023-10-13T13:21:34.629Z,13.82
2023-10-13T13:22:40.104Z,13.10
2023-10-13T13:23:42.623Z,16.60
2023-10-13T13:24:46.165Z,15.35
2023-10-13T13:25:49.445Z,15.07
2023-10-13T13:26:56.447Z,14.52
2023-10-13T13:27:59.616Z,15.02
2023-10-13T13:29:02.246Z,14.98
2023-10-13T13:30:14.390Z,17.87
2023-10-13T13:31:16.763Z,13.38
2023-10-13T13:32:20.512Z,16.13
2023-10-13T13:33:27.595Z,16.45
2023-10-13T13:34:30.125Z,16.55
2023-10-13T13:35:36.226Z,15.30
2023-10-13T13:36:38.946Z,14.45
2023-10-13T13:37:43.952Z,14.32
2023-10-13T13:38:52.724Z,13.68
2023-10-13T13:39:55.425Z,15.18
2023-10-13T13:40:57.887Z,14.53
2023-10-13T13:42:00.577Z,15.70
2023-10-13T13:43:02.939Z,14.18
2023-10-13T13:44:17.648Z,17.95
2023-10-13T13:45:28.827Z,17.20
2023-10-13T13:46:34.820Z,14.73
2023-10-13T13:47:37.279Z,15.75
2023-10-13T13:48:42.330Z,16.25
2023-10-13T13:49:53.367Z,16.67
2023-10-13T13:51:06.142Z,13.77
2023-10-13T13:52:09.221Z,14.57
2023-10-13T13:53:13.085Z,13.15
2023-10-13T13:54:18.223Z,20.17
2023-10-13T13:55:21.827Z,20.35
2023-10-13T13:56:29.865Z,16.35
2023-10-13T13:57:32.565Z,13.32
2023-10-13T13:58:37.014Z,15.32
2023-10-13T13:59:39.497Z,14.15
2023-10-13T14:00:50.009Z,16.65
2023-10-13T14:01:54.469Z,15.60
2023-10-13T14:02:57.333Z,16.13
2023-10-13T14:04:04.552Z,22.00
2023-10-13T14:05:07.653Z,15.23
2023-10-13T14:06:18.851Z,15.65
2023-10-13T14:07:23.757Z,15.90
2023-10-13T14:08:27.188Z,16.13
2023-10-13T14:09:38.172Z,18.73
2023-10-13T14:10:59.594Z,15.68
2023-10-13T14:12:20.649Z,14.73
2023-10-13T14:13:43.096Z,14.95
2023-10-13T14:14:57.168Z,15.03
2023-10-13T14:15:59.791Z,13.50
2023-10-13T14:17:08.715Z,14.73
2023-10-13T14:18:18.177Z,15.60
2023-10-13T14:19:30.938Z,17.50
2023-10-13T14:20:33.435Z,15.23
2023-10-13T14:21:36.527Z,16.20
2023-10-13T14:22:38.987Z,18.55
2023-10-13T14:23:41.302Z,17.52
2023-10-13T14:24:49.201Z,15.10
2023-10-13T14:25:52.988Z,17.60
2023-10-13T14:27:22.615Z,18.73
2023-10-13T14:28:27.901Z,18.20
2023-10-13T14:29:30.388Z,18.83
2023-10-13T14:30:34.576Z,18.48
2023-10-13T14:31:43.798Z,18.50
2023-10-13T14:32:46.992Z,16.75
2023-10-13T14:33:49.587Z,18.98
2023-10-13T14:34:58.725Z,19.30
2023-10-13T14:36:01.283Z,16.98
2023-10-13T14:37:05.839Z,16.70
2023-10-13T14:38:08.989Z,14.77
2023-10-13T14:39:18.459Z,18.15
2023-10-13T14:40:23.215Z,15.88
2023-10-13T14:41:25.754Z,18.55
2023-10-13T14:42:29.129Z,15.77
2023-10-13T14:43:31.613Z,18.15
2023-10-13T14:44:35.122Z,21.02
2023-10-13T14:45:37.925Z,17.85
2023-10-13T14:46:41.055Z,15.55
2023-10-13T14:47:44.727Z,15.63
2023-10-13T14:48:50.281Z,17.42
2023-10-13T14:49:56.906Z,25.55
2023-10-13T14:50:59.403Z,19.20
2023-10-13T14:52:02.204Z,16.27
2023-10-13T14:53:04.950Z,17.63
2023-10-13T14:54:07.521Z,18.00
2023-10-13T14:55:20.305Z,15.35
2023-10-13T14:56:26.583Z,17.52
2023-10-13T14:57:29.076Z,16.80
2023-10-13T14:58:31.389Z,17.00
2023-10-13T14:59:40.172Z,22.10
2023-10-13T15:00:46.054Z,18.15
2023-10-13T15:01:48.881Z,17.58
2023-10-13T15:02:51.280Z,17.65
2023-10-13T15:03:56.740Z,16.38
2023-10-13T15:04:59.350Z,17.90
2023-10-13T15:06:02.272Z,16.58
2023-10-13T15:07:04.853Z,16.35
2023-10-13T15:08:11.147Z,16.38
2023-10-13T15:09:13.483Z,17.50
2023-10-13T15:10:16.747Z,15.48
2023-10-13T15:11:21.672Z,16.67